Savannah, GA (31405)

8:10 PM EDT on September 19, 2014 (GMT -0400)
Gould Estates | Change Station
CLOSE
Current Station
Personal Weather Station
Location: Savannah, GA
Elevation: 52 ft
Nearby Weather Stations

Elev 52 ft 32.04 °N, 81.10 °W | Updated 2 minutes ago

Heavy Thunderstorms and Rain
Heavy Thunderstorm Rain Fog
72.6 °F
Feels Like 72.6 °F
N
0.0
Wind Variable Wind from NW
Gusts 2.2 mph

Today
High -- | Low -- °F
--% Chance of Precip.
Yesterday
High -- | Low -- °F
Precip. -- in
7:11 AM 7:25 PM
Waning Crescent, 16% visible
Pressure 30.05 in
Visibility 0.5 miles
Clouds Scattered Clouds 300 ft
Scattered Clouds 2000 ft
Dew Point 72 °F
Humidity 99%
Rainfall 0.81 in
Snow Depth Not available.
UV 0 out of 12
Pollen 7.40 out of 12
Air Quality Not available.
Flu Activity Not available.
SPECI KSVN 200008Z AUTO VRB06G27KT 1/2SM R28/2200FT +TSRA FG SCT003 SCT020 23/21 A3005 RMK AO2 VIS 1/2V10 RAB0003 TSB2358

More Conditions Fewer Conditions

Pressure 30.05 in
Visibility 0.5 miles
Clouds Scattered Clouds 300 ft
Scattered Clouds 2000 ft
Dew Point 72 °F
Humidity 99%
Rainfall 0.81 in
Snow Depth Not available.
UV 0 out of 12
Pollen 7.40 out of 12
Air Quality Not available.
Flu Activity Not available.
SPECI KSVN 200008Z AUTO VRB06G27KT 1/2SM R28/2200FT +TSRA FG SCT003 SCT020 23/21 A3005 RMK AO2 VIS 1/2V10 RAB0003 TSB2358

More Conditions Fewer Conditions

10-Day Weather Forecast

Almanac

Astronomy

Sep. 19, 2014 Rise Set
Actual Time 7:11 AM EDT 7:25 PM EDT
Civil Twilight 6:46 AM EDT 7:49 PM EDT
Nautical Twilight 6:17 AM EDT 8:18 PM EDT
Astronomical Twilight 5:49 AM EDT 8:47 PM EDT
Moon 3:06 AM EDT (9/19) 4:42 PM EDT (9/19)
Length of Visible Light 13h 03m
Length of Day
12h 14m
Tomorrow will be 1m 56s shorter.
Waning Crescent, 16% of the Moon is Illuminated
Today
Waning Crescent
Sep 24
New
Oct 1
First Quarter
Oct 8
Full
Oct 15
Last Quarter

Today's Extremes

State Highs State Lows

Community

WunderPhotos

Upload Photos

1,754,734 photos uploaded!

WunderBlogs® & News

Nearby

Snow Depth

Station Depth Elevation
No new snow has been reported.

Earthquake Activity

City Distance Mag. Time & Date
New Ellenton, South Carolina 102 miles 2.6 4:38 PM EDT
2014-09-19
Minimum magnitude displayed is 2.5.

Coastal Water Temperatures

Place Temperature
No Stations Reporting

Nearby Weather Stations